createdAt,value
2022-12-15T00:00:47.491Z,99448.83
2022-12-15T00:03:46.720Z,99454.31
2022-12-15T00:06:33.362Z,99453.30
2022-12-15T00:09:20.805Z,99451.16
2022-12-15T00:12:07.891Z,99450.63
2022-12-15T00:14:54.155Z,99452.14
2022-12-15T00:17:40.925Z,99456.03
2022-12-15T00:20:28.002Z,99456.95
2022-12-15T00:23:14.544Z,99459.02
2022-12-15T00:26:02.534Z,99456.23
2022-12-15T00:28:49.151Z,99449.38
2022-12-15T00:31:35.653Z,99452.99
2022-12-15T00:34:22.177Z,99457.87
2022-12-15T00:37:09.564Z,99458.47
2022-12-15T00:39:37.565Z,99462.98
2022-12-15T00:42:06.908Z,99462.20
2022-12-15T00:44:35.089Z,99462.27
2022-12-15T00:47:04.504Z,99465.96
2022-12-15T00:49:51.326Z,99466.29
2022-12-15T00:52:37.923Z,99468.48
2022-12-15T00:55:24.960Z,99475.58
2022-12-15T00:58:12.786Z,99479.58
2022-12-15T01:00:59.767Z,99484.98
2022-12-15T01:03:46.497Z,99485.05
2022-12-15T01:06:37.110Z,99487.47
2022-12-15T01:09:26.317Z,99480.71
2022-12-15T01:12:13.064Z,99478.59
2022-12-15T01:15:00.001Z,99477.54
2022-12-15T01:17:46.803Z,99474.33
2022-12-15T01:20:20.615Z,99471.18
2022-12-15T01:22:55.984Z,99470.08
2022-12-15T01:25:26.195Z,99470.52
2022-12-15T01:27:54.735Z,99468.80
2022-12-15T01:30:26.137Z,99470.23
2022-12-15T01:32:54.062Z,99472.96
2022-12-15T01:35:22.613Z,99478.71
2022-12-15T01:37:50.543Z,99477.02
2022-12-15T01:40:39.840Z,99479.95
2022-12-15T01:43:32.163Z,99485.58
2022-12-15T01:46:12.894Z,99494.64
2022-12-15T01:49:10.470Z,99498.21
2022-12-15T01:51:42.625Z,99496.67
2022-12-15T01:54:22.761Z,99498.48
2022-12-15T01:56:55.663Z,99499.81
2022-12-15T01:59:38.405Z,99503.80
2022-12-15T02:02:06.826Z,99504.66
2022-12-15T02:04:35.023Z,99510.30
2022-12-15T02:07:02.970Z,99509.12
2022-12-15T02:09:31.063Z,99515.76
2022-12-15T02:12:14.312Z,99516.95
2022-12-15T02:15:25.035Z,99519.17
2022-12-15T02:18:08.068Z,99513.17
2022-12-15T02:20:45.267Z,99513.95
2022-12-15T02:24:04.809Z,99513.73
2022-12-15T02:27:11.920Z,99519.53
2022-12-15T02:31:08.317Z,99521.52
2022-12-15T02:33:44.837Z,99525.18
2022-12-15T02:36:24.056Z,99532.33
2022-12-15T02:38:51.966Z,99533.48
2022-12-15T02:41:37.088Z,99537.92
2022-12-15T02:44:20.195Z,99541.97
2022-12-15T02:47:09.934Z,99540.59
2022-12-15T02:50:05.405Z,99548.84
2022-12-15T02:52:57.954Z,99550.53
2022-12-15T02:55:48.352Z,99546.71
2022-12-15T02:59:05.728Z,99538.96
2022-12-15T03:01:59.638Z,99544.13
2022-12-15T03:04:28.307Z,99548.04
2022-12-15T03:07:01.190Z,99548.39
2022-12-15T03:09:33.339Z,99550.95
2022-12-15T03:12:01.538Z,99552.13
2022-12-15T03:14:29.396Z,99555.29
2022-12-15T03:16:57.423Z,99554.90
2022-12-15T03:19:25.891Z,99557.77
2022-12-15T03:21:53.799Z,99552.02
2022-12-15T03:24:21.666Z,99559.00
2022-12-15T03:26:50.236Z,99562.27
2022-12-15T03:29:18.310Z,99560.65
2022-12-15T03:31:46.547Z,99561.52
2022-12-15T03:34:18.117Z,99562.86
2022-12-15T03:36:46.380Z,99556.94
2022-12-15T03:39:14.433Z,99559.33
2022-12-15T03:41:42.413Z,99559.63
2022-12-15T03:44:11.225Z,99558.29
2022-12-15T03:46:39.259Z,99564.71
2022-12-15T03:49:07.159Z,99574.98
2022-12-15T03:51:35.126Z,99583.20
2022-12-15T03:54:02.999Z,99584.45
2022-12-15T03:56:30.965Z,99587.30
2022-12-15T03:58:58.934Z,99591.20
2022-12-15T04:01:33.362Z,99595.21
2022-12-15T04:04:01.886Z,99597.27
2022-12-15T04:06:30.758Z,99598.55
2022-12-15T04:08:58.979Z,99601.17
2022-12-15T04:11:26.992Z,99604.29
2022-12-15T04:13:54.850Z,99606.56
2022-12-15T04:16:22.841Z,99608.05
2022-12-15T04:19:10.853Z,99611.73
2022-12-15T04:21:38.706Z,99616.42
2022-12-15T04:24:25.371Z,99615.44
2022-12-15T04:27:12.029Z,99620.64
2022-12-15T04:29:58.838Z,99622.48
2022-12-15T04:32:45.262Z,99624.11
2022-12-15T04:35:37.763Z,99629.02
2022-12-15T04:38:24.005Z,99629.02
2022-12-15T04:41:10.754Z,99639.62
2022-12-15T04:43:58.368Z,99641.36
2022-12-15T04:46:45.116Z,99644.81
2022-12-15T04:49:31.481Z,99650.81
2022-12-15T04:52:18.267Z,99658.24
2022-12-15T04:55:04.998Z,99665.09
2022-12-15T04:57:51.651Z,99666.59
2022-12-15T05:00:38.428Z,99668.08
2022-12-15T05:03:26.749Z,99669.54
2022-12-15T05:06:13.496Z,99676.58
2022-12-15T05:09:00.421Z,99678.98
2022-12-15T05:11:46.997Z,99683.30
2022-12-15T05:14:33.600Z,99683.73
2022-12-15T05:17:20.550Z,99685.33
2022-12-15T05:20:07.399Z,99683.32
2022-12-15T05:22:53.942Z,99691.75
2022-12-15T05:25:41.012Z,99695.90
2022-12-15T05:28:27.651Z,99700.45
2022-12-15T05:31:14.589Z,99702.42
2022-12-15T05:33:42.477Z,99707.81
2022-12-15T05:36:10.386Z,99715.39
2022-12-15T05:38:38.235Z,99723.65
2022-12-15T05:41:06.068Z,99729.04
2022-12-15T05:43:34.638Z,99733.73
2022-12-15T05:46:04.546Z,99737.30
2022-12-15T05:48:32.657Z,99751.42
2022-12-15T05:51:11.560Z,99756.58
2022-12-15T05:53:41.171Z,99759.36
2022-12-15T05:56:13.161Z,99764.37
2022-12-15T05:58:45.305Z,99769.31
2022-12-15T06:01:17.208Z,99772.76
2022-12-15T06:03:45.439Z,99772.59
2022-12-15T06:06:13.874Z,99768.31
2022-12-15T06:08:42.739Z,99770.40
2022-12-15T06:11:16.330Z,99764.71
2022-12-15T06:13:45.059Z,99766.69
2022-12-15T06:16:17.437Z,99766.48
2022-12-15T06:18:50.459Z,99779.42
2022-12-15T06:21:28.369Z,99783.33
2022-12-15T06:23:57.805Z,99786.83
2022-12-15T06:26:44.371Z,99790.91
2022-12-15T06:29:13.408Z,99792.22
2022-12-15T06:31:41.729Z,99794.39
2022-12-15T06:34:15.306Z,99797.52
2022-12-15T06:36:43.990Z,99801.85
2022-12-15T06:39:15.239Z,99802.77
2022-12-15T06:41:43.805Z,99803.70
2022-12-15T06:44:15.928Z,99809.88
2022-12-15T06:46:46.136Z,99811.00
2022-12-15T06:49:14.940Z,99814.45
2022-12-15T06:51:43.986Z,99817.81
2022-12-15T06:54:11.992Z,99811.95
2022-12-15T06:56:39.956Z,99815.45
2022-12-15T06:59:11.908Z,99819.11
2022-12-15T07:01:41.826Z,99824.08
2022-12-15T07:04:11.167Z,99837.05
2022-12-15T07:06:40.159Z,99845.46
2022-12-15T07:09:15.965Z,99853.36
2022-12-15T07:11:45.263Z,99854.00
2022-12-15T07:14:13.118Z,99853.56
2022-12-15T07:16:41.172Z,99852.52
2022-12-15T07:19:14.108Z,99852.61
2022-12-15T07:21:42.637Z,99852.98
2022-12-15T07:24:13.942Z,99861.39
2022-12-15T07:26:42.570Z,99860.50
2022-12-15T07:29:11.975Z,99866.98
2022-12-15T07:31:40.345Z,99872.09
2022-12-15T07:34:08.308Z,99875.58
2022-12-15T07:36:36.331Z,99872.16
2022-12-15T07:39:51.637Z,99885.36
2022-12-15T07:42:19.665Z,99890.83
2022-12-15T07:44:49.939Z,99891.41
2022-12-15T07:47:18.167Z,99893.16
2022-12-15T07:49:46.226Z,99896.62
2022-12-15T07:52:14.274Z,99901.88
2022-12-15T07:54:43.453Z,99906.53
2022-12-15T07:57:11.430Z,99905.48
2022-12-15T07:59:39.341Z,99901.35
2022-12-15T08:02:10.315Z,99903.63
2022-12-15T08:04:40.192Z,99904.31
2022-12-15T08:07:09.178Z,99904.59
2022-12-15T08:09:37.580Z,99911.23
2022-12-15T08:12:06.041Z,99913.31
2022-12-15T08:14:35.066Z,99915.02
2022-12-15T08:17:03.192Z,99918.47
2022-12-15T08:19:34.255Z,99917.40
2022-12-15T08:22:02.322Z,99921.08
2022-12-15T08:24:30.243Z,99923.55
2022-12-15T08:26:58.929Z,99924.91
2022-12-15T08:32:14.807Z,99939.65
2022-12-15T08:34:42.705Z,99939.34
2022-12-15T08:37:11.055Z,99938.27
2022-12-15T08:39:39.229Z,99939.86
2022-12-15T08:42:07.326Z,99946.75
2022-12-15T08:44:35.427Z,99950.02
2022-12-15T08:47:03.389Z,99960.20
2022-12-15T08:49:31.655Z,99959.77
2022-12-15T08:51:59.567Z,99966.06
2022-12-15T08:54:27.475Z,99971.31
2022-12-15T08:56:55.708Z,99976.91
2022-12-15T08:59:23.696Z,99980.66
2022-12-15T09:01:51.989Z,99988.35
2022-12-15T09:04:20.118Z,99990.58
2022-12-15T09:06:50.867Z,99991.45
2022-12-15T09:09:20.173Z,99992.38
2022-12-15T09:11:49.568Z,99993.70
2022-12-15T09:14:22.744Z,99996.79
2022-12-15T09:16:55.353Z,99992.23
2022-12-15T09:19:23.381Z,99988.60
2022-12-15T09:21:51.273Z,99984.63
2022-12-15T09:24:28.835Z,99981.69
2022-12-15T09:27:00.517Z,99985.15
2022-12-15T09:29:28.637Z,99984.67
2022-12-15T09:31:56.686Z,99985.85
2022-12-15T09:34:24.538Z,99986.27
2022-12-15T09:36:52.511Z,99985.61
2022-12-15T09:39:20.487Z,99986.73
2022-12-15T09:41:57.089Z,99989.54
2022-12-15T09:44:28.043Z,99994.14
2022-12-15T09:47:18.736Z,100001.52
2022-12-15T09:49:55.501Z,100003.41
2022-12-15T09:52:35.695Z,100006.65
2022-12-15T09:55:19.978Z,100004.64
2022-12-15T09:57:54.302Z,100001.79
2022-12-15T10:00:37.181Z,100004.30
2022-12-15T10:03:30.775Z,100002.02
2022-12-15T10:06:20.158Z,99998.88
2022-12-15T10:08:58.484Z,100003.58
2022-12-15T10:11:56.945Z,100005.04
2022-12-15T10:14:34.822Z,100003.52
2022-12-15T10:17:28.221Z,100008.44
2022-12-15T10:20:27.000Z,100011.71
2022-12-15T10:23:14.637Z,100009.35
2022-12-15T10:25:59.823Z,100012.42
2022-12-15T10:28:59.806Z,100012.91
2022-12-15T10:32:00.438Z,100026.48
2022-12-15T10:34:36.473Z,100027.27
2022-12-15T10:37:04.804Z,100024.96
2022-12-15T10:39:43.068Z,100023.10
2022-12-15T10:42:23.838Z,100023.73
2022-12-15T10:44:55.455Z,100017.55
2022-12-15T10:47:32.081Z,100015.95
2022-12-15T10:50:25.241Z,100015.70
2022-12-15T10:52:53.386Z,100020.63
2022-12-15T10:55:41.816Z,100021.67
2022-12-15T10:58:21.068Z,100016.93
2022-12-15T11:01:06.859Z,100016.69
2022-12-15T11:03:39.746Z,100012.36
2022-12-15T11:06:18.712Z,100011.73
2022-12-15T11:08:47.716Z,100013.94
2022-12-15T11:11:51.677Z,100010.67
2022-12-15T11:14:38.236Z,100007.17
2022-12-15T11:17:07.173Z,100006.35
2022-12-15T11:20:02.370Z,100009.25
2022-12-15T11:22:44.140Z,100008.62
2022-12-15T11:25:38.926Z,100017.86
2022-12-15T11:28:16.736Z,100024.54
2022-12-15T11:30:54.248Z,100025.05
2022-12-15T11:33:22.629Z,100035.80
2022-12-15T11:36:28.153Z,100045.17
2022-12-15T11:39:08.726Z,100047.85
2022-12-15T11:41:52.401Z,100048.05
2022-12-15T11:44:28.819Z,100051.27
2022-12-15T11:47:46.511Z,100051.95
2022-12-15T11:50:52.863Z,100049.23
2022-12-15T11:54:09.486Z,100054.30
2022-12-15T11:57:03.990Z,100055.26
2022-12-15T12:00:05.138Z,100058.27
2022-12-15T12:03:10.600Z,100064.54
2022-12-15T12:06:19.535Z,100059.83
2022-12-15T12:09:16.706Z,100072.58
2022-12-15T12:12:02.513Z,100075.70
2022-12-15T12:15:03.099Z,100076.63
2022-12-15T12:17:43.749Z,100079.17
2022-12-15T12:20:24.715Z,100084.95
2022-12-15T12:23:05.570Z,100085.89
2022-12-15T12:25:44.737Z,100089.70
2022-12-15T12:28:24.141Z,100078.80
2022-12-15T12:30:54.690Z,100080.86
2022-12-15T12:33:49.005Z,100082.65
2022-12-15T12:36:18.170Z,100080.80
2022-12-15T12:38:56.028Z,100087.98
2022-12-15T12:41:44.565Z,100085.66
2022-12-15T12:44:32.185Z,100085.37
2022-12-15T12:47:27.045Z,100086.98
2022-12-15T12:50:02.072Z,100087.98
2022-12-15T12:52:36.941Z,100085.77
2022-12-15T12:55:14.824Z,100086.88
2022-12-15T12:57:44.888Z,100085.52
2022-12-15T13:00:32.151Z,100091.05
2022-12-15T13:03:17.239Z,100089.80
2022-12-15T13:05:50.523Z,100089.88
2022-12-15T13:08:45.261Z,100099.83
2022-12-15T13:11:47.067Z,100107.21
2022-12-15T13:14:48.234Z,100110.95
2022-12-15T13:17:29.847Z,100113.61
2022-12-15T13:20:00.273Z,100118.08
2022-12-15T13:22:36.448Z,100113.20
2022-12-15T13:25:39.771Z,100116.13
2022-12-15T13:28:43.818Z,100119.97
2022-12-15T13:31:17.984Z,100119.13
2022-12-15T13:33:55.681Z,100120.61
2022-12-15T13:36:41.672Z,100120.16
2022-12-15T13:39:12.684Z,100119.73
2022-12-15T13:41:49.884Z,100122.13
2022-12-15T13:44:35.226Z,100114.52
2022-12-15T13:47:16.679Z,100117.90
2022-12-15T13:50:29.828Z,100120.53
2022-12-15T13:56:28.387Z,100126.73
2022-12-15T13:59:05.698Z,100127.42
2022-12-15T14:01:33.989Z,100127.13
2022-12-15T14:04:15.343Z,100131.03
2022-12-15T14:07:02.815Z,100129.31
2022-12-15T14:09:42.148Z,100126.39
2022-12-15T14:12:13.835Z,100132.81
2022-12-15T14:14:49.524Z,100135.33
2022-12-15T14:17:19.689Z,100138.22
2022-12-15T14:19:50.885Z,100135.16
2022-12-15T14:22:30.090Z,100133.98
2022-12-15T14:25:08.880Z,100133.39
2022-12-15T14:27:36.621Z,100132.42
2022-12-15T14:30:26.599Z,100137.26
2022-12-15T14:33:08.000Z,100134.55
2022-12-15T14:35:43.978Z,100134.53
2022-12-15T14:38:26.166Z,100136.59
2022-12-15T14:40:57.067Z,100130.70
2022-12-15T14:43:31.495Z,100134.61
2022-12-15T14:46:14.879Z,100138.16
2022-12-15T14:49:04.618Z,100141.47
2022-12-15T14:51:44.377Z,100137.50
2022-12-15T14:54:35.493Z,100136.61
2022-12-15T14:57:15.635Z,100142.36
2022-12-15T14:59:46.062Z,100147.12
2022-12-15T15:02:28.932Z,100149.41
2022-12-15T15:05:23.314Z,100153.11
2022-12-15T15:07:56.522Z,100147.94
2022-12-15T15:10:29.981Z,100152.41
2022-12-15T15:12:58.365Z,100154.08
2022-12-15T15:15:26.755Z,100149.77
2022-12-15T15:17:58.914Z,100159.87
2022-12-15T15:20:30.222Z,100159.69
2022-12-15T15:23:07.245Z,100166.88
2022-12-15T15:25:42.472Z,100175.83
2022-12-15T15:28:19.507Z,100179.09
2022-12-15T15:31:00.439Z,100180.63
2022-12-15T15:33:28.360Z,100181.61
2022-12-15T15:36:01.031Z,100179.69
2022-12-15T15:38:35.786Z,100187.09
2022-12-15T15:41:27.039Z,100195.91
2022-12-15T15:43:57.010Z,100193.69
2022-12-15T15:46:29.839Z,100194.38
2022-12-15T15:49:00.878Z,100194.17
2022-12-15T15:51:30.888Z,100196.44
2022-12-15T15:54:10.799Z,100201.98
2022-12-15T15:56:39.206Z,100201.86
2022-12-15T15:59:20.837Z,100201.13
2022-12-15T16:01:54.853Z,100201.31
2022-12-15T16:04:24.676Z,100199.52
2022-12-15T16:06:53.716Z,100208.30
2022-12-15T16:09:24.591Z,100208.56
2022-12-15T16:11:53.168Z,100211.45
2022-12-15T16:14:21.359Z,100208.16
2022-12-15T16:16:49.279Z,100206.91
2022-12-15T16:19:17.101Z,100206.16
2022-12-15T16:21:44.942Z,100210.33
2022-12-15T16:24:18.743Z,100215.95
2022-12-15T16:26:50.978Z,100215.53
2022-12-15T16:29:20.729Z,100219.48
2022-12-15T16:31:48.689Z,100220.43
2022-12-15T16:34:16.968Z,100224.13
2022-12-15T16:36:45.219Z,100229.16
2022-12-15T16:39:26.063Z,100226.75
2022-12-15T16:41:55.559Z,100225.73
2022-12-15T16:44:25.841Z,100229.52
2022-12-15T16:46:53.741Z,100230.11
2022-12-15T16:49:21.898Z,100229.53
2022-12-15T16:51:53.570Z,100224.52
2022-12-15T16:54:28.471Z,100222.48
2022-12-15T16:56:58.204Z,100226.25
2022-12-15T16:59:35.663Z,100225.75
2022-12-15T17:02:38.312Z,100220.48
2022-12-15T17:05:06.733Z,100215.18
2022-12-15T17:07:34.531Z,100220.81
2022-12-15T17:10:03.505Z,100220.64
2022-12-15T17:12:31.753Z,100222.67
2022-12-15T17:15:02.243Z,100225.26
2022-12-15T17:17:31.124Z,100231.59
2022-12-15T17:20:28.132Z,100234.90
2022-12-15T17:22:52.314Z,100238.19
2022-12-15T17:26:01.642Z,100235.30
2022-12-15T17:28:31.155Z,100246.17
2022-12-15T17:30:59.524Z,100251.02
2022-12-15T17:33:30.952Z,100252.77
2022-12-15T17:36:03.578Z,100259.27
2022-12-15T17:38:31.353Z,100261.06
2022-12-15T17:41:00.780Z,100266.86
2022-12-15T17:43:35.447Z,100271.64
2022-12-15T17:46:04.179Z,100270.69
2022-12-15T17:48:32.361Z,100272.54
2022-12-15T17:51:00.242Z,100271.57
2022-12-15T17:53:29.005Z,100268.20
2022-12-15T17:55:57.127Z,100263.73
2022-12-15T17:58:26.908Z,100265.16
2022-12-15T18:00:57.154Z,100263.47
2022-12-15T18:03:25.150Z,100262.45
2022-12-15T18:05:53.714Z,100257.65
2022-12-15T18:08:27.721Z,100256.90
2022-12-15T18:10:57.884Z,100257.50
2022-12-15T18:13:35.682Z,100263.66
2022-12-15T18:16:04.042Z,100264.77
2022-12-15T18:18:32.241Z,100263.36
2022-12-15T18:21:07.956Z,100262.70
2022-12-15T18:23:35.998Z,100268.74
2022-12-15T18:26:04.316Z,100268.04
2022-12-15T18:28:35.408Z,100276.02
2022-12-15T18:31:23.585Z,100280.44
2022-12-15T18:33:52.967Z,100284.33
2022-12-15T18:36:22.928Z,100289.36
2022-12-15T18:38:50.814Z,100284.78
2022-12-15T18:41:20.967Z,100282.42
2022-12-15T18:43:48.897Z,100274.61
2022-12-15T18:46:18.778Z,100268.27
2022-12-15T18:48:46.741Z,100265.19
2022-12-15T18:51:22.186Z,100268.91
2022-12-15T18:53:50.099Z,100268.59
2022-12-15T18:56:21.303Z,100274.05
2022-12-15T18:58:49.182Z,100276.86
2022-12-15T19:01:16.981Z,100278.68
2022-12-15T19:03:44.767Z,100284.88
2022-12-15T19:06:34.833Z,100289.56
2022-12-15T19:09:06.216Z,100295.30
2022-12-15T19:11:34.540Z,100300.02
2022-12-15T19:14:04.668Z,100307.27
2022-12-15T19:16:52.532Z,100309.61
2022-12-15T19:19:39.447Z,100296.08
2022-12-15T19:22:29.844Z,100294.77
2022-12-15T19:24:58.981Z,100288.41
2022-12-15T19:27:27.181Z,100296.31
2022-12-15T19:29:55.088Z,100300.02
2022-12-15T19:32:23.941Z,100301.59
2022-12-15T19:34:51.727Z,100306.65
2022-12-15T19:37:29.968Z,100305.75
2022-12-15T19:39:59.957Z,100304.04
2022-12-15T19:42:33.493Z,100301.77
2022-12-15T19:45:13.725Z,100303.79
2022-12-15T19:47:41.539Z,100301.41
2022-12-15T19:50:25.561Z,100296.13
2022-12-15T19:53:03.365Z,100295.30
2022-12-15T19:55:35.550Z,100303.42
2022-12-15T19:58:27.084Z,100305.25
2022-12-15T20:01:00.179Z,100288.36
2022-12-15T20:03:30.192Z,100299.61
2022-12-15T20:06:00.798Z,100303.89
2022-12-15T20:08:35.801Z,100309.69
2022-12-15T20:11:05.073Z,100315.52
2022-12-15T20:13:33.260Z,100320.46
2022-12-15T20:16:01.588Z,100322.95
2022-12-15T20:18:29.748Z,100325.17
2022-12-15T20:20:59.224Z,100314.40
2022-12-15T20:23:29.421Z,100320.60
2022-12-15T20:25:57.902Z,100317.05
2022-12-15T20:28:29.033Z,100318.94
2022-12-15T20:30:58.438Z,100322.80
2022-12-15T20:33:26.301Z,100322.69
2022-12-15T20:35:54.322Z,100313.69
2022-12-15T20:38:33.175Z,100312.30
2022-12-15T20:41:03.663Z,100311.44
2022-12-15T20:43:32.537Z,100313.71
2022-12-15T20:46:18.421Z,100320.13
2022-12-15T20:48:47.770Z,100327.24
2022-12-15T20:51:25.128Z,100328.02
2022-12-15T20:53:55.683Z,100334.20
2022-12-15T20:56:24.269Z,100335.44
2022-12-15T20:58:55.398Z,100326.39
2022-12-15T21:01:35.389Z,100323.45
2022-12-15T21:04:26.565Z,100332.55
2022-12-15T21:06:55.992Z,100334.58
2022-12-15T21:09:24.630Z,100332.41
2022-12-15T21:11:54.898Z,100337.80
2022-12-15T21:14:24.111Z,100335.75
2022-12-15T21:16:52.215Z,100337.15
2022-12-15T21:19:21.736Z,100338.28
2022-12-15T21:21:55.645Z,100334.73
2022-12-15T21:24:26.802Z,100339.34
2022-12-15T21:26:55.243Z,100331.83
2022-12-15T21:29:27.286Z,100329.37
2022-12-15T21:31:55.121Z,100332.48
2022-12-15T21:34:22.969Z,100331.52
2022-12-15T21:36:54.913Z,100327.08
2022-12-15T21:39:29.618Z,100322.59
2022-12-15T21:42:01.628Z,100316.34
2022-12-15T21:44:29.476Z,100316.13
2022-12-15T21:46:57.871Z,100318.38
2022-12-15T21:49:26.244Z,100324.19
2022-12-15T21:51:58.204Z,100325.11
2022-12-15T21:54:31.704Z,100327.93
2022-12-15T21:57:00.879Z,100320.56
2022-12-15T21:59:32.009Z,100315.66
2022-12-15T22:02:01.321Z,100316.41
2022-12-15T22:04:33.711Z,100319.81
2022-12-15T22:07:01.694Z,100322.07
2022-12-15T22:09:29.522Z,100314.98
2022-12-15T22:11:57.590Z,100311.55
2022-12-15T22:14:33.567Z,100304.84
2022-12-15T22:17:19.252Z,100300.30
2022-12-15T22:19:47.717Z,100295.91
2022-12-15T22:22:16.612Z,100292.66
2022-12-15T22:24:44.684Z,100293.75
2022-12-15T22:27:21.804Z,100286.56
2022-12-15T22:29:50.335Z,100280.16
2022-12-15T22:32:18.220Z,100276.76
2022-12-15T22:34:46.081Z,100273.48
2022-12-15T22:37:13.899Z,100271.20
2022-12-15T22:39:41.657Z,100266.34
2022-12-15T22:42:16.610Z,100267.54
2022-12-15T22:44:45.145Z,100269.75
2022-12-15T22:47:13.244Z,100271.64
2022-12-15T22:49:41.695Z,100281.14
2022-12-15T22:52:18.322Z,100285.25
2022-12-15T22:54:48.294Z,100285.48
2022-12-15T22:57:25.835Z,100295.56
2022-12-15T23:00:07.253Z,100294.84
2022-12-15T23:02:41.683Z,100300.35
2022-12-15T23:05:13.513Z,100306.27
2022-12-15T23:07:42.562Z,100305.30
2022-12-15T23:10:34.169Z,100298.88
2022-12-15T23:13:01.875Z,100301.58
2022-12-15T23:15:50.185Z,100300.39
2022-12-15T23:18:19.687Z,100302.20
2022-12-15T23:20:47.489Z,100298.52
2022-12-15T23:23:15.374Z,100300.29
2022-12-15T23:25:45.094Z,100294.70
2022-12-15T23:28:14.146Z,100291.18
2022-12-15T23:30:42.271Z,100291.79
2022-12-15T23:33:09.977Z,100301.15
2022-12-15T23:35:40.113Z,100300.43
2022-12-15T23:38:07.850Z,100308.28
2022-12-15T23:40:36.880Z,100309.25
2022-12-15T23:43:04.587Z,100314.89
2022-12-15T23:45:32.481Z,100317.52
2022-12-15T23:48:00.277Z,100320.81
2022-12-15T23:50:27.993Z,100323.61
2022-12-15T23:52:55.708Z,100317.27
2022-12-15T23:55:23.521Z,100317.33
2022-12-15T23:57:51.703Z,100322.80
